Time;durP1;ratioP1;P1;durP2;ratioP2;P2;SDS_P1;SDS_P2;PMS_P1;PMS_P2;Temp;Humidity;BMP_temperature;BMP_pressure;BME280_temperature;BME280_humidity;BME280_pressure;Samples;Min_cycle;Max_cycle;Signal;HPM_P1;HPM_P2
2021/01/03 00:00:53;;;;;;;30.10;17.20;;;;;;;;;;5011465;28;20468;-75
2021/01/03 00:03:19;;;;;;;30.10;18.87;;;;;;;;;;5005081;28;20418;-75
2021/01/03 00:05:45;;;;;;;31.63;18.90;;;;;;;;;;5009889;28;20421;-75
2021/01/03 00:08:11;;;;;;;32.33;20.50;;;;;;;;;;4998971;28;20427;-74
2021/01/03 00:10:37;;;;;;;28.13;18.73;;;;;;;;;;5008738;28;20920;-75
2021/01/03 00:13:03;;;;;;;28.98;18.40;;;;;;;;;;5005590;28;20956;-74
2021/01/03 00:15:29;;;;;;;26.63;17.50;;;;;;;;;;4994092;28;20218;-74
2021/01/03 00:17:55;;;;;;;30.47;18.77;;;;;;;;;;4994851;28;20431;-74
2021/01/03 00:20:26;;;;;;;30.55;20.73;;;;;;;;;;4994607;28;20609;-74
2021/01/03 00:22:53;;;;;;;35.88;19.48;;;;;;;;;;4995062;28;20188;-75
2021/01/03 00:25:19;;;;;;;34.40;20.23;;;;;;;;;;5002221;28;20182;-74
2021/01/03 00:27:46;;;;;;;28.63;18.45;;;;;;;;;;4996030;28;20186;-74
2021/01/03 00:30:13;;;;;;;34.38;20.42;;;;;;;;;;5000629;28;20230;-74
2021/01/03 00:32:39;;;;;;;34.95;22.70;;;;;;;;;;5005198;28;20215;-75
2021/01/03 00:35:09;;;;;;;29.98;20.38;;;;;;;;;;4999179;28;20745;-74
2021/01/03 00:37:35;;;;;;;29.88;19.17;;;;;;;;;;4995423;28;20190;-75
2021/01/03 00:40:01;;;;;;;30.88;19.67;;;;;;;;;;4999013;28;20337;-75
2021/01/03 00:42:27;;;;;;;33.70;20.90;;;;;;;;;;5007492;28;20668;-75
2021/01/03 00:44:53;;;;;;;34.37;20.10;;;;;;;;;;5008955;28;20423;-74
2021/01/03 00:47:19;;;;;;;30.20;21.40;;;;;;;;;;5008620;28;20484;-74
2021/01/03 00:49:45;;;;;;;35.00;20.33;;;;;;;;;;5010231;28;20449;-74
2021/01/03 00:52:11;;;;;;;31.83;18.90;;;;;;;;;;5013790;28;20189;-75
2021/01/03 00:54:36;;;;;;;27.90;17.60;;;;;;;;;;5007106;28;20430;-75
2021/01/03 00:57:02;;;;;;;29.50;20.47;;;;;;;;;;5000485;28;20465;-74
2021/01/03 00:59:28;;;;;;;35.88;21.23;;;;;;;;;;4999444;28;20477;-73
2021/01/03 01:01:54;;;;;;;28.63;19.30;;;;;;;;;;4998695;28;20685;-75
2021/01/03 01:04:20;;;;;;;26.37;18.10;;;;;;;;;;4996455;28;20605;-74
2021/01/03 01:06:46;;;;;;;25.90;17.90;;;;;;;;;;5011758;28;20508;-74
2021/01/03 01:09:12;;;;;;;40.72;19.65;;;;;;;;;;4994789;28;20446;-73
2021/01/03 01:11:39;;;;;;;26.45;18.60;;;;;;;;;;4994117;28;20325;-72
2021/01/03 01:14:05;;;;;;;26.20;17.17;;;;;;;;;;4993510;28;20221;-75
2021/01/03 01:16:31;;;;;;;22.70;15.95;;;;;;;;;;5009915;28;20179;-74
2021/01/03 01:18:57;;;;;;;30.80;18.77;;;;;;;;;;5007408;28;20212;-75
2021/01/03 01:21:23;;;;;;;24.33;18.27;;;;;;;;;;5008055;28;20215;-75
2021/01/03 01:23:49;;;;;;;26.57;17.03;;;;;;;;;;5013364;28;20421;-75
2021/01/03 01:26:15;;;;;;;26.63;18.13;;;;;;;;;;4999230;28;20772;-74
2021/01/03 01:28:41;;;;;;;33.45;18.35;;;;;;;;;;4993159;28;20461;-72
2021/01/03 01:31:07;;;;;;;27.70;19.60;;;;;;;;;;4993929;28;20198;-74
2021/01/03 01:33:33;;;;;;;29.37;17.37;;;;;;;;;;4997131;28;20914;-74
2021/01/03 01:35:59;;;;;;;31.97;18.70;;;;;;;;;;5002880;28;20821;-74
2021/01/03 01:38:25;;;;;;;28.40;17.17;;;;;;;;;;4994124;28;20871;-74
2021/01/03 01:40:51;;;;;;;29.23;20.10;;;;;;;;;;4994547;28;20246;-75
2021/01/03 01:43:17;;;;;;;30.05;18.38;;;;;;;;;;4993131;28;20443;-74
2021/01/03 01:45:44;;;;;;;28.40;19.48;;;;;;;;;;4999122;28;20179;-75
2021/01/03 01:48:16;;;;;;;29.48;19.35;;;;;;;;;;4994727;28;20186;-75
2021/01/03 01:50:43;;;;;;;30.25;20.75;;;;;;;;;;4993171;28;20211;-75
2021/01/03 01:53:14;;;;;;;35.03;19.17;;;;;;;;;;4994206;28;20187;-74
2021/01/03 01:55:44;;;;;;;28.73;19.10;;;;;;;;;;5004285;28;20222;-74
2021/01/03 01:58:29;;;;;;;26.10;18.42;;;;;;;;;;4994808;28;20621;-75
2021/01/03 02:00:57;;;;;;;29.02;20.10;;;;;;;;;;4974871;28;20226;-75
2021/01/03 02:03:33;;;;;;;29.55;18.88;;;;;;;;;;4988288;28;20198;-75
2021/01/03 02:06:06;;;;;;;31.80;21.02;;;;;;;;;;5000491;28;20209;-75
2021/01/03 02:08:34;;;;;;;34.55;21.75;;;;;;;;;;4993336;28;20579;-75
2021/01/03 02:11:01;;;;;;;30.15;21.50;;;;;;;;;;4993970;28;20238;-75
2021/01/03 02:13:30;;;;;;;30.08;20.73;;;;;;;;;;4995122;28;20192;-74
2021/01/03 02:15:59;;;;;;;30.40;19.00;;;;;;;;;;4993441;28;20202;-76
2021/01/03 02:18:25;;;;;;;33.45;20.45;;;;;;;;;;4991157;28;20214;-75
2021/01/03 02:20:56;;;;;;;30.75;20.80;;;;;;;;;;4996474;28;20203;-75
2021/01/03 02:23:48;;;;;;;29.05;20.10;;;;;;;;;;4992423;28;20197;-75
2021/01/03 02:26:14;;;;;;;30.35;20.35;;;;;;;;;;4999224;28;20307;-74
2021/01/03 02:28:42;;;;;;;31.85;21.20;;;;;;;;;;4989776;28;20586;-75
2021/01/03 02:31:08;;;;;;;28.65;20.42;;;;;;;;;;4991679;28;20606;-74
2021/01/03 02:33:40;;;;;;;30.83;20.50;;;;;;;;;;4989695;28;20183;-74
2021/01/03 02:36:08;;;;;;;27.48;17.58;;;;;;;;;;5003575;28;20655;-75
2021/01/03 02:38:36;;;;;;;32.13;21.52;;;;;;;;;;4996023;28;20290;-76
2021/01/03 02:41:02;;;;;;;32.60;20.52;;;;;;;;;;4993261;28;20215;-74
2021/01/03 02:43:28;;;;;;;36.67;22.27;;;;;;;;;;5002491;28;20183;-74
2021/01/03 02:45:54;;;;;;;34.20;22.60;;;;;;;;;;5010942;28;20426;-74
2021/01/03 02:48:22;;;;;;;32.58;21.65;;;;;;;;;;5005057;28;20519;-74
2021/01/03 02:50:49;;;;;;;30.55;21.13;;;;;;;;;;5000353;28;20178;-74
2021/01/03 02:53:15;;;;;;;32.83;20.23;;;;;;;;;;5010999;28;20245;-74
2021/01/03 02:55:41;;;;;;;34.00;20.98;;;;;;;;;;5004022;28;20198;-74
2021/01/03 02:58:07;;;;;;;32.43;20.57;;;;;;;;;;4991796;28;20843;-73
2021/01/03 03:00:35;;;;;;;33.35;23.13;;;;;;;;;;4997818;28;20473;-74
2021/01/03 03:03:01;;;;;;;39.65;20.70;;;;;;;;;;4998938;28;20192;-73
2021/01/03 03:05:27;;;;;;;34.78;22.92;;;;;;;;;;4996329;28;20642;-74
2021/01/03 03:07:54;;;;;;;38.95;21.90;;;;;;;;;;5011273;28;20291;-73
2021/01/03 03:10:20;;;;;;;34.33;23.58;;;;;;;;;;5010970;28;20329;-73
2021/01/03 03:12:54;;;;;;;32.42;20.38;;;;;;;;;;4991940;28;20265;-74
2021/01/03 03:15:21;;;;;;;35.67;22.55;;;;;;;;;;4995465;28;20522;-74
2021/01/03 03:17:47;;;;;;;35.53;22.23;;;;;;;;;;5011107;28;20195;-75
2021/01/03 03:20:14;;;;;;;34.20;21.92;;;;;;;;;;4998226;28;20314;-74
2021/01/03 03:22:39;;;;;;;33.35;19.70;;;;;;;;;;5006619;28;20176;-74
2021/01/03 03:25:06;;;;;;;27.23;20.02;;;;;;;;;;4993150;28;20259;-74
2021/01/03 03:27:32;;;;;;;32.08;20.75;;;;;;;;;;4993363;28;20179;-74
2021/01/03 03:29:58;;;;;;;25.77;19.63;;;;;;;;;;4992933;28;20949;-75
2021/01/03 03:32:24;;;;;;;32.35;20.13;;;;;;;;;;5004010;28;20273;-74
2021/01/03 03:34:50;;;;;;;31.27;18.65;;;;;;;;;;4990079;28;20179;-74
2021/01/03 03:37:17;;;;;;;29.63;19.07;;;;;;;;;;4990796;28;20188;-74
2021/01/03 03:39:43;;;;;;;30.50;18.65;;;;;;;;;;4991111;28;20879;-74
2021/01/03 03:42:10;;;;;;;33.67;20.83;;;;;;;;;;4993478;28;20184;-74
2021/01/03 03:44:36;;;;;;;31.33;20.00;;;;;;;;;;5007045;28;20427;-74
2021/01/03 03:47:03;;;;;;;36.07;20.60;;;;;;;;;;5010933;28;20656;-74
2021/01/03 03:49:30;;;;;;;29.55;18.30;;;;;;;;;;5000732;28;20489;-75
2021/01/03 03:51:56;;;;;;;31.85;19.45;;;;;;;;;;4992210;28;20311;-74
2021/01/03 03:54:22;;;;;;;35.60;21.00;;;;;;;;;;4990740;28;20184;-74
2021/01/03 03:56:49;;;;;;;31.25;21.27;;;;;;;;;;5007684;28;20197;-74
2021/01/03 03:59:15;;;;;;;32.40;19.58;;;;;;;;;;4982062;28;20258;-74
2021/01/03 04:01:41;;;;;;;32.63;21.73;;;;;;;;;;4999903;28;20782;-74
2021/01/03 04:04:07;;;;;;;32.63;22.10;;;;;;;;;;4992547;28;20510;-74
2021/01/03 04:06:33;;;;;;;30.90;20.00;;;;;;;;;;4991128;28;20399;-74
2021/01/03 04:08:59;;;;;;;29.80;20.00;;;;;;;;;;4990933;28;20485;-74
2021/01/03 04:11:25;;;;;;;29.77;19.87;;;;;;;;;;4991549;28;20410;-74
2021/01/03 04:13:51;;;;;;;34.33;21.07;;;;;;;;;;4998359;28;20483;-74
2021/01/03 04:16:17;;;;;;;28.57;21.03;;;;;;;;;;5010624;28;20508;-74
2021/01/03 04:18:44;;;;;;;31.33;20.20;;;;;;;;;;4994460;28;20450;-75
2021/01/03 04:21:11;;;;;;;29.25;20.33;;;;;;;;;;4991871;28;20430;-74
2021/01/03 04:23:37;;;;;;;31.08;19.42;;;;;;;;;;5005862;28;20254;-74
2021/01/03 04:26:03;;;;;;;33.17;19.55;;;;;;;;;;5002982;28;20203;-74
2021/01/03 04:28:29;;;;;;;32.80;19.80;;;;;;;;;;4995764;28;20314;-74
2021/01/03 04:30:55;;;;;;;34.00;19.73;;;;;;;;;;4991113;28;20415;-73
2021/01/03 04:33:21;;;;;;;29.80;19.48;;;;;;;;;;5000858;28;20216;-74
2021/01/03 04:35:49;;;;;;;36.00;21.08;;;;;;;;;;4996960;28;20261;-74
2021/01/03 04:38:15;;;;;;;25.05;17.92;;;;;;;;;;4974815;28;20235;-74
2021/01/03 04:40:41;;;;;;;35.08;21.05;;;;;;;;;;5002120;28;20213;-74
2021/01/03 04:43:12;;;;;;;34.93;18.83;;;;;;;;;;4996951;28;20253;-74
2021/01/03 04:45:40;;;;;;;32.50;20.33;;;;;;;;;;5006811;28;20421;-73
2021/01/03 04:48:07;;;;;;;30.15;18.77;;;;;;;;;;5012247;28;20213;-74
2021/01/03 04:50:52;;;;;;;32.58;19.23;;;;;;;;;;4995686;28;20884;-74
2021/01/03 04:53:36;;;;;;;36.60;19.20;;;;;;;;;;5003247;28;20249;-74
2021/01/03 04:56:05;;;;;;;30.42;20.90;;;;;;;;;;5006388;28;20193;-74
2021/01/03 04:59:06;;;;;;;25.55;17.17;;;;;;;;;;5003692;28;20334;-74
2021/01/03 05:01:38;;;;;;;25.67;17.30;;;;;;;;;;4983177;28;20576;-74
2021/01/03 05:04:23;;;;;;;29.70;18.80;;;;;;;;;;4989697;28;20191;-74
2021/01/03 05:06:53;;;;;;;35.90;21.88;;;;;;;;;;5008846;28;20218;-74
2021/01/03 05:09:19;;;;;;;35.08;20.05;;;;;;;;;;5006699;28;20203;-73
2021/01/03 05:11:45;;;;;;;39.08;19.75;;;;;;;;;;4994950;28;20647;-74
2021/01/03 05:14:44;;;;;;;32.35;19.15;;;;;;;;;;4994803;28;20183;-73
2021/01/03 05:17:10;;;;;;;35.38;19.20;;;;;;;;;;4982704;28;20188;-73
2021/01/03 05:19:36;;;;;;;24.88;16.75;;;;;;;;;;4993414;28;20211;-73
2021/01/03 05:22:02;;;;;;;28.17;20.30;;;;;;;;;;4994260;28;20262;-74
2021/01/03 05:24:29;;;;;;;36.43;20.33;;;;;;;;;;4993695;28;20407;-74
2021/01/03 05:26:56;;;;;;;35.38;18.38;;;;;;;;;;5004095;28;20458;-73
2021/01/03 05:29:26;;;;;;;29.38;18.58;;;;;;;;;;5005889;28;20215;-73
2021/01/03 05:31:56;;;;;;;30.33;18.10;;;;;;;;;;5010208;28;20269;-74
2021/01/03 05:34:30;;;;;;;30.58;17.42;;;;;;;;;;4982332;28;20180;-74
2021/01/03 05:37:01;;;;;;;26.33;16.63;;;;;;;;;;5004926;28;20762;-74
2021/01/03 05:39:29;;;;;;;32.67;18.35;;;;;;;;;;4993774;28;20248;-74
2021/01/03 05:42:04;;;;;;;26.30;17.35;;;;;;;;;;4994310;28;20324;-74
2021/01/03 05:44:38;;;;;;;30.25;18.30;;;;;;;;;;5005321;28;20564;-74
2021/01/03 05:47:24;;;;;;;28.30;17.33;;;;;;;;;;4996453;28;20186;-74
2021/01/03 05:50:11;;;;;;;30.00;20.08;;;;;;;;;;4993062;28;20447;-76
2021/01/03 05:52:44;;;;;;;25.88;18.13;;;;;;;;;;4991598;28;20199;-75
2021/01/03 05:55:11;;;;;;;26.42;18.05;;;;;;;;;;5004538;28;20189;-75
2021/01/03 05:57:37;;;;;;;30.63;18.13;;;;;;;;;;5007276;28;20520;-74
2021/01/03 06:00:17;;;;;;;28.45;19.48;;;;;;;;;;5006205;28;20257;-75
2021/01/03 06:02:43;;;;;;;27.13;17.33;;;;;;;;;;4987662;28;20181;-74
2021/01/03 06:05:13;;;;;;;27.30;19.65;;;;;;;;;;4996813;28;20630;-75
2021/01/03 06:07:39;;;;;;;28.90;18.70;;;;;;;;;;5002205;28;20187;-75
2021/01/03 06:10:24;;;;;;;25.15;16.85;;;;;;;;;;5000500;28;20230;-75
2021/01/03 06:12:57;;;;;;;30.15;16.85;;;;;;;;;;4985101;28;20591;-75
2021/01/03 06:15:23;;;;;;;31.45;18.70;;;;;;;;;;4992404;28;20182;-76
2021/01/03 06:17:49;;;;;;;24.40;17.83;;;;;;;;;;5002813;28;20186;-75
2021/01/03 06:20:15;;;;;;;27.15;17.38;;;;;;;;;;4995919;28;20218;-75
2021/01/03 06:22:47;;;;;;;28.65;18.35;;;;;;;;;;5000962;28;20227;-76
2021/01/03 06:25:21;;;;;;;31.70;18.52;;;;;;;;;;5003542;28;20190;-75
2021/01/03 06:27:48;;;;;;;24.55;16.27;;;;;;;;;;5000568;28;20268;-75
2021/01/03 06:30:16;;;;;;;22.65;16.33;;;;;;;;;;4989126;28;20265;-74
2021/01/03 06:32:44;;;;;;;25.48;16.20;;;;;;;;;;4992184;28;20180;-74
2021/01/03 06:35:16;;;;;;;25.85;16.20;;;;;;;;;;4990570;28;20211;-74
2021/01/03 06:37:49;;;;;;;28.23;16.77;;;;;;;;;;4992203;28;20195;-75
2021/01/03 06:40:20;;;;;;;30.30;18.38;;;;;;;;;;4992066;28;20209;-74
2021/01/03 06:42:52;;;;;;;25.25;17.67;;;;;;;;;;4991871;28;20760;-74
2021/01/03 06:45:38;;;;;;;23.27;16.10;;;;;;;;;;4991246;28;20188;-73
2021/01/03 06:48:07;;;;;;;24.20;16.85;;;;;;;;;;4980515;28;20191;-73
2021/01/03 06:50:43;;;;;;;25.08;16.20;;;;;;;;;;4991879;28;20180;-73
2021/01/03 06:53:27;;;;;;;24.98;16.13;;;;;;;;;;4991832;28;20183;-75
2021/01/03 06:56:04;;;;;;;28.48;17.13;;;;;;;;;;4972186;28;20216;-75
2021/01/03 06:58:48;;;;;;;23.83;16.45;;;;;;;;;;4985314;28;20307;-74
2021/01/03 07:01:19;;;;;;;27.80;16.55;;;;;;;;;;4990567;28;20198;-75
2021/01/03 07:03:47;;;;;;;26.80;18.20;;;;;;;;;;4991110;28;20197;-74
2021/01/03 07:06:13;;;;;;;30.02;17.50;;;;;;;;;;4991593;28;20198;-74
2021/01/03 07:08:44;;;;;;;26.10;16.97;;;;;;;;;;4991068;28;20211;-74
2021/01/03 07:11:29;;;;;;;27.65;17.92;;;;;;;;;;4979933;28;20895;-74
2021/01/03 07:13:55;;;;;;;26.08;16.40;;;;;;;;;;4991751;28;20669;-74
2021/01/03 07:16:39;;;;;;;23.80;15.40;;;;;;;;;;4990984;28;20183;-74
2021/01/03 07:19:05;;;;;;;27.60;16.60;;;;;;;;;;4990558;28;20435;-75
2021/01/03 07:21:36;;;;;;;26.40;16.90;;;;;;;;;;4990980;28;20198;-75
2021/01/03 07:24:21;;;;;;;23.63;15.75;;;;;;;;;;4988286;28;20223;-74
2021/01/03 07:27:06;;;;;;;26.05;17.83;;;;;;;;;;4991127;28;20270;-75
2021/01/03 07:29:32;;;;;;;22.30;16.10;;;;;;;;;;4990912;28;20695;-74
2021/01/03 07:32:05;;;;;;;28.73;18.50;;;;;;;;;;4991563;28;20186;-74
2021/01/03 07:34:35;;;;;;;26.58;16.08;;;;;;;;;;4990308;28;20433;-75
2021/01/03 07:37:13;;;;;;;26.77;17.00;;;;;;;;;;4990825;28;20192;-74
2021/01/03 07:39:57;;;;;;;28.88;19.25;;;;;;;;;;4990829;28;20302;-74
2021/01/03 07:42:30;;;;;;;24.23;16.52;;;;;;;;;;4983851;28;20184;-75
2021/01/03 07:44:58;;;;;;;24.20;16.17;;;;;;;;;;4984820;28;20183;-74
2021/01/03 07:47:34;;;;;;;23.63;16.23;;;;;;;;;;4989903;28;20214;-75
2021/01/03 07:50:19;;;;;;;30.58;17.58;;;;;;;;;;4985246;28;20206;-75
2021/01/03 07:52:46;;;;;;;22.63;15.95;;;;;;;;;;4991431;28;20175;-75
2021/01/03 07:55:32;;;;;;;23.52;15.50;;;;;;;;;;4990444;28;20187;-75
2021/01/03 07:58:01;;;;;;;29.42;17.67;;;;;;;;;;4987626;28;20266;-75
2021/01/03 08:00:28;;;;;;;24.20;15.18;;;;;;;;;;4983463;28;20211;-75
2021/01/03 08:03:00;;;;;;;23.25;14.88;;;;;;;;;;4990847;28;20242;-75
2021/01/03 08:05:26;;;;;;;19.83;14.85;;;;;;;;;;4991167;28;20777;-74
2021/01/03 08:08:00;;;;;;;26.80;18.30;;;;;;;;;;4990611;28;20424;-76
2021/01/03 08:10:26;;;;;;;23.55;16.27;;;;;;;;;;4991938;28;20513;-75
2021/01/03 08:12:58;;;;;;;18.67;14.45;;;;;;;;;;4989191;28;20274;-77
2021/01/03 08:15:28;;;;;;;27.77;18.02;;;;;;;;;;4990794;28;20184;-76
2021/01/03 08:18:00;;;;;;;23.15;15.43;;;;;;;;;;4992060;28;20209;-76
2021/01/03 08:20:26;;;;;;;21.70;13.52;;;;;;;;;;4994086;28;20203;-75
2021/01/03 08:22:52;;;;;;;20.17;13.40;;;;;;;;;;4994328;28;20187;-76
2021/01/03 08:25:21;;;;;;;22.38;15.50;;;;;;;;;;4992248;28;20190;-76
2021/01/03 08:27:52;;;;;;;26.55;15.98;;;;;;;;;;4992626;28;20175;-75
2021/01/03 08:30:20;;;;;;;22.85;15.15;;;;;;;;;;4991822;28;20266;-76
2021/01/03 08:32:46;;;;;;;16.75;12.65;;;;;;;;;;4992645;28;20188;-76
2021/01/03 08:35:14;;;;;;;22.20;14.60;;;;;;;;;;4995086;28;20179;-78
2021/01/03 08:37:42;;;;;;;22.15;14.43;;;;;;;;;;4995145;28;20187;-77
2021/01/03 08:40:15;;;;;;;21.45;14.82;;;;;;;;;;4993380;28;20215;-76
2021/01/03 08:42:42;;;;;;;20.63;14.32;;;;;;;;;;4995285;28;20190;-75
2021/01/03 08:45:13;;;;;;;18.20;12.82;;;;;;;;;;4993590;28;20186;-77
2021/01/03 08:47:40;;;;;;;19.77;12.85;;;;;;;;;;4992844;28;20188;-78
2021/01/03 08:50:09;;;;;;;22.27;14.95;;;;;;;;;;4994484;28;20210;-76
2021/01/03 08:52:35;;;;;;;17.65;11.93;;;;;;;;;;4994930;28;20174;-76
2021/01/03 08:55:10;;;;;;;19.13;13.40;;;;;;;;;;4994518;28;20578;-76
2021/01/03 08:57:37;;;;;;;17.70;12.02;;;;;;;;;;4992582;28;20442;-79
2021/01/03 09:00:04;;;;;;;14.15;10.93;;;;;;;;;;4997408;28;20294;-77
2021/01/03 09:02:30;;;;;;;18.33;11.52;;;;;;;;;;4995104;28;20188;-77
2021/01/03 09:05:00;;;;;;;16.70;14.50;;;;;;;;;;4991232;28;20195;-78
2021/01/03 09:07:28;;;;;;;13.00;9.88;;;;;;;;;;4989738;28;20179;-75
2021/01/03 09:09:54;;;;;;;15.18;10.93;;;;;;;;;;4997067;28;20206;-81
2021/01/03 09:12:37;;;;;;;12.65;9.77;;;;;;;;;;4992884;28;20184;-79
2021/01/03 09:15:05;;;;;;;12.43;10.25;;;;;;;;;;4994095;28;20179;-78
2021/01/03 09:17:35;;;;;;;15.93;11.57;;;;;;;;;;4996265;28;20184;-77
2021/01/03 09:20:01;;;;;;;15.77;10.95;;;;;;;;;;4992635;28;20204;-77
2021/01/03 09:22:35;;;;;;;12.83;9.53;;;;;;;;;;4994641;28;20186;-76
2021/01/03 09:25:03;;;;;;;11.45;9.68;;;;;;;;;;4994653;28;20784;-77
2021/01/03 09:27:30;;;;;;;10.98;9.13;;;;;;;;;;4991883;28;20219;-77
2021/01/03 09:30:16;;;;;;;12.85;10.23;;;;;;;;;;4995707;28;20745;-77
2021/01/03 09:32:43;;;;;;;11.65;9.10;;;;;;;;;;4990238;28;20275;-78
2021/01/03 09:35:21;;;;;;;10.35;8.13;;;;;;;;;;4996636;28;20183;-78
2021/01/03 09:38:01;;;;;;;12.82;9.88;;;;;;;;;;4994590;28;20191;-77
2021/01/03 09:40:31;;;;;;;12.25;9.45;;;;;;;;;;4991928;28;20256;-76
2021/01/03 09:43:00;;;;;;;11.52;9.43;;;;;;;;;;4993827;28;20564;-77
2021/01/03 09:45:45;;;;;;;15.23;10.80;;;;;;;;;;4992888;28;20294;-77
2021/01/03 09:48:24;;;;;;;20.10;8.45;;;;;;;;;;4993006;28;20179;-78
2021/01/03 09:50:50;;;;;;;12.05;8.88;;;;;;;;;;4993942;28;20262;-78
2021/01/03 09:53:19;;;;;;;11.57;8.65;;;;;;;;;;4995074;28;20207;-78
2021/01/03 09:55:48;;;;;;;11.38;9.45;;;;;;;;;;4993379;28;20192;-77
2021/01/03 09:58:14;;;;;;;14.32;11.05;;;;;;;;;;4992610;28;20215;-77
2021/01/03 10:00:49;;;;;;;12.20;9.00;;;;;;;;;;4996758;28;20203;-77
2021/01/03 10:03:17;;;;;;;13.63;10.15;;;;;;;;;;5001832;28;20253;-77
2021/01/03 10:05:44;;;;;;;10.73;9.15;;;;;;;;;;4991140;28;20183;-77
2021/01/03 10:08:15;;;;;;;13.10;10.15;;;;;;;;;;4975866;28;20236;-79
2021/01/03 10:10:42;;;;;;;16.33;9.38;;;;;;;;;;4988598;28;20202;-77
2021/01/03 10:13:09;;;;;;;15.13;9.95;;;;;;;;;;4992508;28;20184;-77
2021/01/03 10:15:35;;;;;;;12.40;9.23;;;;;;;;;;4995126;28;20175;-77
2021/01/03 10:18:06;;;;;;;14.02;8.80;;;;;;;;;;4996540;28;20176;-78
2021/01/03 10:20:40;;;;;;;13.48;8.90;;;;;;;;;;4993848;28;20273;-77
2021/01/03 10:23:08;;;;;;;10.68;8.30;;;;;;;;;;4982582;28;20176;-77
2021/01/03 10:25:34;;;;;;;16.02;10.13;;;;;;;;;;4978092;28;20311;-77
2021/01/03 10:28:09;;;;;;;12.05;10.23;;;;;;;;;;4992353;28;20179;-77
2021/01/03 10:30:35;;;;;;;11.23;8.55;;;;;;;;;;4992348;28;20273;-77
2021/01/03 10:33:02;;;;;;;9.65;8.25;;;;;;;;;;4992721;28;20198;-77
2021/01/03 10:35:28;;;;;;;10.25;9.15;;;;;;;;;;4992107;28;20191;-77
2021/01/03 10:37:54;;;;;;;11.63;8.35;;;;;;;;;;4992645;28;20188;-77
2021/01/03 10:40:20;;;;;;;10.52;8.75;;;;;;;;;;4992873;28;20195;-77
2021/01/03 10:42:47;;;;;;;10.63;8.45;;;;;;;;;;4992155;28;20178;-77
2021/01/03 10:45:14;;;;;;;10.02;8.13;;;;;;;;;;4991548;28;20202;-78
2021/01/03 10:47:39;;;;;;;11.25;9.68;;;;;;;;;;4990695;28;20198;-77
2021/01/03 10:50:06;;;;;;;11.13;8.80;;;;;;;;;;4992625;28;20208;-78
2021/01/03 10:52:32;;;;;;;12.23;9.95;;;;;;;;;;4993586;28;20423;-78
2021/01/03 10:54:58;;;;;;;10.83;9.73;;;;;;;;;;4993253;28;20190;-78
2021/01/03 10:57:24;;;;;;;9.97;8.37;;;;;;;;;;4991967;28;20454;-78
2021/01/03 10:59:51;;;;;;;9.37;8.43;;;;;;;;;;4998745;28;20490;-77
2021/01/03 11:02:17;;;;;;;9.82;8.82;;;;;;;;;;5008759;28;20411;-78
2021/01/03 11:04:43;;;;;;;11.87;8.97;;;;;;;;;;5011354;28;20726;-78
2021/01/03 11:07:10;;;;;;;12.77;11.17;;;;;;;;;;5032090;28;20413;-78
2021/01/03 11:09:36;;;;;;;11.50;10.48;;;;;;;;;;5031714;28;20429;-78
2021/01/03 11:12:07;;;;;;;9.32;8.30;;;;;;;;;;5012605;28;20247;-78
2021/01/03 11:14:33;;;;;;;14.20;9.23;;;;;;;;;;5008151;28;20163;-78
2021/01/03 11:16:59;;;;;;;10.68;9.20;;;;;;;;;;5015390;28;20686;-78
2021/01/03 11:19:25;;;;;;;10.40;8.83;;;;;;;;;;4996386;28;20226;-77
2021/01/03 11:21:57;;;;;;;8.35;7.43;;;;;;;;;;5003783;28;20450;-80
2021/01/03 11:24:23;;;;;;;9.63;7.65;;;;;;;;;;5006806;28;20646;-77
2021/01/03 11:26:49;;;;;;;9.70;7.57;;;;;;;;;;4996544;28;20187;-74
2021/01/03 11:29:17;;;;;;;9.30;7.95;;;;;;;;;;4980746;28;20219;-75
2021/01/03 11:31:46;;;;;;;9.48;8.57;;;;;;;;;;4996708;28;20268;-74
2021/01/03 11:34:14;;;;;;;10.82;8.38;;;;;;;;;;4991265;28;20172;-75
2021/01/03 11:36:51;;;;;;;9.85;7.20;;;;;;;;;;5003517;28;20217;-76
2021/01/03 11:39:17;;;;;;;9.52;8.52;;;;;;;;;;4994574;28;20209;-77
2021/01/03 11:41:45;;;;;;;9.00;7.40;;;;;;;;;;5003873;28;20179;-77
2021/01/03 11:44:11;;;;;;;8.27;7.47;;;;;;;;;;5012243;28;20183;-77
2021/01/03 11:46:37;;;;;;;8.10;7.30;;;;;;;;;;5005557;28;20215;-77
2021/01/03 11:49:03;;;;;;;10.10;8.30;;;;;;;;;;5011516;28;20190;-76
2021/01/03 11:51:30;;;;;;;8.97;6.70;;;;;;;;;;5000047;28;20233;-75
2021/01/03 11:53:56;;;;;;;7.57;6.78;;;;;;;;;;4991525;28;20466;-75
2021/01/03 11:56:22;;;;;;;8.85;7.47;;;;;;;;;;4999781;28;20261;-77
2021/01/03 11:58:49;;;;;;;9.25;8.32;;;;;;;;;;5010795;28;20284;-77
2021/01/03 12:01:18;;;;;;;9.45;7.05;;;;;;;;;;5002023;28;20214;-77
2021/01/03 12:03:45;;;;;;;6.85;6.10;;;;;;;;;;5001837;28;20172;-76
2021/01/03 12:06:11;;;;;;;8.50;7.35;;;;;;;;;;4998791;28;20585;-76
2021/01/03 12:08:37;;;;;;;10.25;7.43;;;;;;;;;;5006273;28;20299;-75
2021/01/03 12:11:03;;;;;;;8.98;7.95;;;;;;;;;;4996400;28;20182;-76
2021/01/03 12:13:29;;;;;;;9.77;6.55;;;;;;;;;;4992142;28;20315;-76
2021/01/03 12:15:55;;;;;;;7.97;6.63;;;;;;;;;;4992790;28;20179;-75
2021/01/03 12:18:21;;;;;;;7.40;6.70;;;;;;;;;;4991612;28;20431;-76
2021/01/03 12:20:47;;;;;;;10.33;6.70;;;;;;;;;;4994962;28;20468;-76
2021/01/03 12:23:13;;;;;;;9.00;7.60;;;;;;;;;;5010985;28;20444;-79
2021/01/03 12:25:38;;;;;;;8.40;6.30;;;;;;;;;;5004035;28;20175;-77
2021/01/03 12:28:04;;;;;;;7.70;6.23;;;;;;;;;;4995626;28;20466;-77
2021/01/03 12:30:30;;;;;;;8.40;7.45;;;;;;;;;;4992576;28;21092;-77
2021/01/03 12:32:56;;;;;;;9.17;7.33;;;;;;;;;;5008474;28;20191;-77
2021/01/03 12:35:22;;;;;;;7.60;6.80;;;;;;;;;;4990042;28;20446;-77
2021/01/03 12:37:48;;;;;;;8.27;6.27;;;;;;;;;;5011573;28;20432;-76
2021/01/03 12:40:15;;;;;;;15.40;6.97;;;;;;;;;;4987756;28;20466;-76
2021/01/03 12:42:41;;;;;;;9.52;5.82;;;;;;;;;;4992475;28;20523;-77
2021/01/03 12:45:08;;;;;;;11.43;5.60;;;;;;;;;;4989608;28;20671;-77
2021/01/03 12:47:34;;;;;;;7.85;6.15;;;;;;;;;;4990757;28;20225;-76
2021/01/03 12:50:00;;;;;;;9.90;6.20;;;;;;;;;;4993764;28;20281;-76
2021/01/03 12:52:26;;;;;;;6.20;5.43;;;;;;;;;;4990394;28;21069;-77
2021/01/03 12:54:52;;;;;;;7.68;6.13;;;;;;;;;;5006362;28;20182;-77
2021/01/03 12:57:18;;;;;;;7.37;6.67;;;;;;;;;;5010490;28;20662;-77
2021/01/03 12:59:44;;;;;;;9.55;6.57;;;;;;;;;;5000479;28;20473;-77
2021/01/03 13:02:10;;;;;;;10.18;5.80;;;;;;;;;;4999948;28;20203;-77
2021/01/03 13:04:36;;;;;;;7.60;6.03;;;;;;;;;;4990851;28;20681;-77
2021/01/03 13:07:02;;;;;;;6.35;5.63;;;;;;;;;;4993345;28;20671;-77
2021/01/03 13:09:28;;;;;;;6.17;5.57;;;;;;;;;;5009834;28;20249;-77
2021/01/03 13:11:54;;;;;;;6.93;6.18;;;;;;;;;;4997987;28;20418;-77
2021/01/03 13:14:20;;;;;;;8.18;6.30;;;;;;;;;;4993271;28;20183;-77
2021/01/03 13:16:47;;;;;;;6.47;5.22;;;;;;;;;;4995412;28;20259;-76
2021/01/03 13:19:13;;;;;;;14.80;5.50;;;;;;;;;;4993683;28;20200;-77
2021/01/03 13:21:39;;;;;;;4.88;4.35;;;;;;;;;;4994433;28;20654;-78
2021/01/03 13:24:05;;;;;;;6.13;5.53;;;;;;;;;;4994960;28;20183;-78
2021/01/03 13:26:31;;;;;;;6.60;4.78;;;;;;;;;;4996077;28;20446;-78
2021/01/03 13:28:57;;;;;;;6.13;5.53;;;;;;;;;;4992812;28;20219;-78
2021/01/03 13:31:25;;;;;;;6.78;6.07;;;;;;;;;;5003778;28;20653;-78
2021/01/03 13:33:52;;;;;;;7.18;6.20;;;;;;;;;;5004396;28;20451;-78
2021/01/03 13:36:18;;;;;;;6.88;5.70;;;;;;;;;;4995143;28;20195;-78
2021/01/03 13:38:45;;;;;;;5.93;5.38;;;;;;;;;;5003230;28;20203;-78
2021/01/03 13:41:11;;;;;;;6.07;5.47;;;;;;;;;;4995883;28;20199;-78
2021/01/03 13:43:38;;;;;;;5.35;4.85;;;;;;;;;;4995091;28;20250;-77
2021/01/03 13:46:04;;;;;;;7.75;6.90;;;;;;;;;;4994536;28;20279;-78
2021/01/03 13:48:30;;;;;;;7.03;6.30;;;;;;;;;;4994833;28;20226;-78
2021/01/03 13:50:56;;;;;;;6.07;5.45;;;;;;;;;;4996734;28;20180;-78
2021/01/03 13:53:22;;;;;;;6.78;6.07;;;;;;;;;;5000182;28;20191;-78
2021/01/03 13:55:48;;;;;;;18.93;6.40;;;;;;;;;;4994646;28;20180;-77
2021/01/03 13:58:15;;;;;;;7.68;4.78;;;;;;;;;;5009310;28;20505;-78
2021/01/03 14:00:41;;;;;;;6.63;5.93;;;;;;;;;;5011169;28;20287;-78
2021/01/03 14:03:07;;;;;;;5.15;4.60;;;;;;;;;;4998096;28;20698;-77
2021/01/03 14:05:32;;;;;;;6.65;5.82;;;;;;;;;;4998369;28;20188;-78
2021/01/03 14:07:58;;;;;;;9.37;6.50;;;;;;;;;;5008721;28;20186;-78
2021/01/03 14:10:24;;;;;;;9.10;5.03;;;;;;;;;;5010916;28;20429;-78
2021/01/03 14:12:50;;;;;;;9.40;6.27;;;;;;;;;;5006072;28;20515;-77
2021/01/03 14:15:17;;;;;;;9.20;7.05;;;;;;;;;;4993483;28;20418;-78
2021/01/03 14:17:43;;;;;;;11.88;7.80;;;;;;;;;;4992167;28;20257;-78
2021/01/03 14:20:12;;;;;;;8.95;7.20;;;;;;;;;;4994766;28;20628;-78
2021/01/03 14:22:39;;;;;;;8.73;6.93;;;;;;;;;;4976375;28;20195;-77
2021/01/03 14:25:06;;;;;;;13.65;7.70;;;;;;;;;;4975469;28;20180;-77
2021/01/03 14:27:32;;;;;;;7.28;6.40;;;;;;;;;;4994028;28;20266;-78
2021/01/03 14:29:58;;;;;;;7.00;6.40;;;;;;;;;;4989566;28;20303;-77
2021/01/03 14:32:27;;;;;;;9.00;7.00;;;;;;;;;;4989973;28;20439;-77